Time;durP1;ratioP1;P1;durP2;ratioP2;P2;SDS_P1;SDS_P2;PMS_P1;PMS_P2;Temp;Humidity;BMP_temperature;BMP_pressure;BME280_temperature;BME280_humidity;BME280_pressure;Samples;Min_cycle;Max_cycle;Signal;HPM_P1;HPM_P2
2022/08/31 00:05:09;;;;;;;8.98;5.35;;;;;;;18.69;58.15;99403.59;1666611;86;21152;-45
2022/08/31 00:07:36;;;;;;;7.17;5.30;;;;;;;18.66;58.33;99405.17;1666399;86;20953;-45
2022/08/31 00:10:13;;;;;;;11.33;5.55;;;;;;;18.66;58.32;99404.59;1666569;86;21044;-45
2022/08/31 00:12:38;;;;;;;9.70;5.83;;;;;;;18.65;58.40;99407.14;1666274;86;21077;-45
2022/08/31 00:15:07;;;;;;;8.13;5.33;;;;;;;18.63;58.86;99412.28;1662053;86;21080;-45
2022/08/31 00:17:34;;;;;;;10.43;5.27;;;;;;;18.64;58.95;99406.95;1666718;86;21196;-45
2022/08/31 00:20:04;;;;;;;8.20;5.00;;;;;;;18.72;58.81;99412.37;1666678;86;21789;-45
2022/08/31 00:22:31;;;;;;;8.80;5.20;;;;;;;18.79;59.02;99410.88;1666649;86;20965;-45
2022/08/31 00:24:57;;;;;;;8.25;4.97;;;;;;;18.80;59.09;99414.59;1666311;84;21678;-45
2022/08/31 00:27:24;;;;;;;6.33;4.92;;;;;;;18.81;59.45;99411.26;1666735;86;21108;-45
2022/08/31 00:29:51;;;;;;;9.05;5.05;;;;;;;18.80;60.00;99415.19;1666717;86;21144;-45
2022/08/31 00:32:19;;;;;;;8.63;5.20;;;;;;;18.75;60.16;99408.78;1666423;86;21594;-45
2022/08/31 00:37:30;;;;;;;7.75;5.25;;;;;;;18.66;60.39;99408.70;1846655;77;22313;-44
2022/08/31 00:39:58;;;;;;;10.23;4.72;;;;;;;18.49;60.53;99408.91;1816246;79;21486;-45
2022/08/31 00:42:25;;;;;;;12.35;5.00;;;;;;;18.33;60.60;99406.73;1816387;79;21490;-44
2022/08/31 00:44:52;;;;;;;7.28;5.35;;;;;;;18.20;61.24;99409.84;1816269;79;20951;-45
2022/08/31 00:47:19;;;;;;;6.37;4.80;;;;;;;18.10;61.73;99407.39;1816307;79;20995;-45
2022/08/31 00:49:49;;;;;;;7.35;5.25;;;;;;;18.06;62.14;99409.38;1816073;79;21292;-45
2022/08/31 00:52:22;;;;;;;11.93;5.00;;;;;;;18.12;62.22;99409.71;1816550;79;20920;-45
2022/08/31 00:55:09;;;;;;;8.40;5.03;;;;;;;18.19;61.92;99413.77;1816284;79;23228;-45
2022/08/31 00:57:39;;;;;;;10.45;5.53;;;;;;;18.23;61.42;99411.75;1816279;79;20988;-44
2022/08/31 01:00:10;;;;;;;10.85;5.40;;;;;;;18.27;60.69;99408.38;1816744;79;21545;-44
2022/08/31 01:02:38;;;;;;;9.28;5.15;;;;;;;18.31;60.20;99402.23;1816291;79;21058;-44
2022/08/31 01:05:07;;;;;;;7.55;5.40;;;;;;;18.33;60.04;99407.33;1816403;79;21003;-45
2022/08/31 01:07:34;;;;;;;7.45;5.28;;;;;;;18.35;59.86;99404.34;1816371;79;21498;-45
2022/08/31 01:10:01;;;;;;;8.83;5.22;;;;;;;18.36;59.73;99407.28;1816386;79;21502;-45
2022/08/31 01:12:28;;;;;;;9.23;5.22;;;;;;;18.36;59.62;99405.91;1816410;79;21440;-44
2022/08/31 01:14:56;;;;;;;9.63;5.37;;;;;;;18.37;59.54;99410.80;1786815;79;21768;-45
2022/08/31 01:17:23;;;;;;;9.10;5.42;;;;;;;18.37;59.63;99414.33;1816408;79;21003;-45
2022/08/31 01:20:26;;;;;;;9.65;5.47;;;;;;;18.36;59.66;99410.02;1816439;79;21125;-45
2022/08/31 01:23:12;;;;;;;11.63;5.25;;;;;;;18.37;59.71;99408.84;1816501;79;21538;-44
2022/08/31 01:25:42;;;;;;;10.00;5.20;;;;;;;18.33;59.95;99410.86;1811291;79;20999;-45
2022/08/31 01:28:09;;;;;;;8.88;5.53;;;;;;;18.31;59.90;99411.06;1816750;79;21055;-45
2022/08/31 01:30:39;;;;;;;9.43;5.50;;;;;;;18.29;59.90;99412.87;1816292;79;20979;-45
2022/08/31 01:33:06;;;;;;;7.47;4.97;;;;;;;18.30;59.93;99415.77;1818374;78;21235;-45
2022/08/31 01:35:33;;;;;;;10.25;5.40;;;;;;;18.29;60.04;99410.12;1823318;78;21000;-45
2022/08/31 01:38:02;;;;;;;9.43;5.10;;;;;;;18.29;60.07;99411.50;1812959;79;20961;-45
2022/08/31 01:40:35;;;;;;;9.80;4.60;;;;;;;18.32;59.92;99405.17;1812815;79;21371;-44
2022/08/31 01:43:01;;;;;;;9.50;5.35;;;;;;;18.40;59.80;99405.86;1812879;79;21531;-44
2022/08/31 01:45:28;;;;;;;7.30;5.10;;;;;;;18.45;59.71;99407.56;1812890;79;21127;-45
2022/08/31 01:47:55;;;;;;;7.72;5.08;;;;;;;18.48;59.79;99405.38;1812338;79;20960;-45
2022/08/31 01:50:23;;;;;;;8.55;4.70;;;;;;;18.51;59.73;99401.02;1690198;82;21019;-45
2022/08/31 01:52:50;;;;;;;8.15;5.03;;;;;;;18.52;59.76;99406.11;1734364;82;21045;-45
2022/08/31 01:55:17;;;;;;;6.08;4.42;;;;;;;18.53;60.07;99405.52;1742789;82;21043;-45
2022/08/31 01:57:44;;;;;;;7.58;4.92;;;;;;;18.52;60.63;99405.33;1766688;80;21208;-45
2022/08/31 02:00:17;;;;;;;6.58;4.58;;;;;;;18.51;60.81;99405.14;1715575;82;20961;-44
2022/08/31 02:02:45;;;;;;;;;;;;;;;18.49;61.02;99402.05;1776462;80;21638;-44
2022/08/31 02:05:13;;;;;;;10.08;4.62;;;;;;;18.46;61.08;99407.75;1773713;80;20143;-45
2022/08/31 02:07:41;;;;;;;5.42;4.37;;;;;;;18.30;61.21;99403.42;1773699;80;21500;-45
2022/08/31 02:10:08;;;;;;;7.95;4.97;;;;;;;18.23;60.85;99403.52;1741407;82;21262;-45
2022/08/31 02:12:36;;;;;;;5.55;4.40;;;;;;;18.16;60.95;99400.25;1773732;80;21037;-45
2022/08/31 02:15:04;;;;;;;5.47;4.25;;;;;;;18.11;61.04;99398.55;1741467;82;21009;-45
2022/08/31 02:17:31;;;;;;;8.23;4.50;;;;;;;18.03;61.08;99395.70;1773892;80;21022;-45
2022/08/31 02:19:58;;;;;;;6.60;4.58;;;;;;;18.01;61.09;99389.87;1741441;82;21046;-45
2022/08/31 02:22:24;;;;;;;6.58;4.35;;;;;;;18.01;60.89;99387.88;1775732;80;21134;-45
2022/08/31 02:24:53;;;;;;;5.40;4.20;;;;;;;18.02;60.74;99386.70;1778992;80;20988;-45
2022/08/31 02:27:23;;;;;;;8.08;4.78;;;;;;;18.01;60.72;99390.62;1779191;80;20948;-44
2022/08/31 02:29:50;;;;;;;7.15;5.47;;;;;;;17.98;60.80;99391.44;1774043;80;20961;-45
2022/08/31 02:32:16;;;;;;;8.08;5.15;;;;;;;17.95;60.92;99399.13;1779239;80;21002;-45
2022/08/31 02:34:43;;;;;;;5.70;4.80;;;;;;;17.92;60.91;99397.77;1818149;78;21176;-45
2022/08/31 02:37:11;;;;;;;7.70;5.03;;;;;;;17.87;60.77;99396.84;1817993;78;20925;-45
2022/08/31 02:39:37;;;;;;;7.08;5.08;;;;;;;17.81;60.83;99397.28;1818200;78;20981;-45
2022/08/31 02:42:06;;;;;;;7.95;5.33;;;;;;;17.75;60.82;99392.08;1786585;78;21201;-45
2022/08/31 02:44:33;;;;;;;7.20;5.17;;;;;;;17.71;60.85;99391.33;1817959;78;21542;-45
2022/08/31 02:47:00;;;;;;;9.13;5.67;;;;;;;17.64;61.10;99391.39;1818066;78;21228;-45
2022/08/31 02:49:35;;;;;;;6.37;5.30;;;;;;;17.59;61.13;99392.41;1817051;78;20996;-45
2022/08/31 02:52:03;;;;;;;8.73;5.53;;;;;;;17.51;61.45;99393.05;1817815;78;20949;-45
2022/08/31 02:54:29;;;;;;;10.28;4.83;;;;;;;17.46;61.67;99388.59;1818167;78;20870;-45
2022/08/31 02:56:56;;;;;;;6.95;4.95;;;;;;;17.42;61.64;99388.63;1817918;78;21028;-45
2022/08/31 02:59:23;;;;;;;6.17;5.08;;;;;;;17.43;61.69;99401.13;1812592;78;21258;-45
2022/08/31 03:01:51;;;;;;;9.80;5.90;;;;;;;17.43;61.60;99393.52;1817792;78;20996;-45
2022/08/31 03:04:18;;;;;;;9.18;5.05;;;;;;;17.39;61.46;99394.90;1817804;78;21005;-45
2022/08/31 03:06:46;;;;;;;7.17;5.33;;;;;;;17.31;61.60;99389.30;1818028;78;20998;-45
2022/08/31 03:09:14;;;;;;;7.28;5.70;;;;;;;17.25;61.61;99390.91;1817817;78;21013;-45
2022/08/31 03:11:42;;;;;;;7.35;5.00;;;;;;;17.17;61.73;99398.41;1817863;78;21203;-44
2022/08/31 03:14:09;;;;;;;8.73;5.40;;;;;;;17.12;62.04;99398.83;1817628;78;21012;-45
2022/08/31 03:16:39;;;;;;;7.40;5.15;;;;;;;17.09;62.20;99397.50;1817830;78;20945;-45
2022/08/31 03:19:08;;;;;;;8.63;5.80;;;;;;;17.08;62.31;99393.98;1818118;78;21562;-45
2022/08/31 03:21:35;;;;;;;7.45;5.58;;;;;;;17.08;62.37;99398.67;1818110;78;21404;-45
2022/08/31 03:24:02;;;;;;;7.87;5.42;;;;;;;17.04;62.32;99394.56;1817900;78;21122;-45
2022/08/31 03:26:29;;;;;;;7.75;4.55;;;;;;;17.04;62.34;99399.29;1817835;78;20968;-45
2022/08/31 03:28:56;;;;;;;8.80;5.17;;;;;;;17.10;62.42;99399.03;1818239;78;21091;-45
2022/08/31 03:31:36;;;;;;;6.35;4.97;;;;;;;17.18;62.31;99406.04;1772209;78;20909;-45
2022/08/31 03:34:03;;;;;;;6.58;4.90;;;;;;;17.21;62.48;99399.74;1818271;78;21041;-45
2022/08/31 03:36:31;;;;;;;6.65;4.70;;;;;;;17.24;62.51;99396.97;1819124;78;21129;-45
2022/08/31 03:38:57;;;;;;;6.42;4.67;;;;;;;17.27;62.73;99391.29;1823806;78;21048;-45
2022/08/31 03:41:25;;;;;;;7.17;4.92;;;;;;;17.32;63.15;99396.34;1823867;78;21004;-45
2022/08/31 03:43:52;;;;;;;7.28;5.05;;;;;;;17.27;63.69;99395.41;1823773;78;20961;-45
2022/08/31 03:46:19;;;;;;;7.42;4.58;;;;;;;17.23;64.10;99396.02;1823729;78;21024;-44
2022/08/31 03:48:48;;;;;;;6.53;4.47;;;;;;;17.26;64.19;99392.47;1823782;78;21124;-45
2022/08/31 03:51:15;;;;;;;8.25;4.62;;;;;;;17.32;64.28;99393.02;1823846;78;21307;-45
2022/08/31 03:53:43;;;;;;;7.72;5.00;;;;;;;17.41;64.16;99395.28;1823579;78;21581;-45
2022/08/31 03:56:10;;;;;;;6.58;4.58;;;;;;;17.48;64.36;99402.06;1823636;78;21331;-45
2022/08/31 03:58:40;;;;;;;10.43;5.83;;;;;;;17.53;63.85;99401.63;1823883;78;21467;-45
2022/08/31 04:01:06;;;;;;;6.10;5.08;;;;;;;17.56;62.87;99400.06;1823649;78;21487;-45
2022/08/31 04:03:52;;;;;;;9.75;5.60;;;;;;;17.48;62.45;99400.69;1823614;78;21004;-45
2022/08/31 04:06:30;;;;;;;7.37;5.20;;;;;;;17.33;62.69;99407.50;1710336;83;21055;-45
2022/08/31 04:09:15;;;;;;;7.65;5.50;;;;;;;17.21;63.08;99407.97;1823735;78;20995;-45
2022/08/31 04:11:53;;;;;;;7.70;5.58;;;;;;;17.09;63.49;99405.09;1784780;78;21531;-45
2022/08/31 04:14:38;;;;;;;9.50;5.25;;;;;;;17.03;63.71;99410.84;1823532;78;21236;-45
2022/08/31 04:17:23;;;;;;;7.30;5.35;;;;;;;17.05;64.14;99410.41;1823628;78;21526;-44
2022/08/31 04:19:51;;;;;;;7.42;5.25;;;;;;;17.05;64.38;99400.83;1822901;78;20977;-44
2022/08/31 04:22:29;;;;;;;6.10;5.33;;;;;;;17.07;64.71;99406.11;1802915;78;21448;-45
2022/08/31 04:25:01;;;;;;;9.53;5.78;;;;;;;17.06;64.70;99403.76;1818661;78;21007;-45
2022/08/31 04:27:28;;;;;;;9.03;5.35;;;;;;;17.05;64.92;99407.67;1823483;78;21186;-45
2022/08/31 04:29:55;;;;;;;6.97;4.58;;;;;;;17.06;65.28;99403.76;1823796;78;20949;-45
2022/08/31 04:32:22;;;;;;;7.05;4.75;;;;;;;17.13;65.86;99406.47;1794404;78;21021;-45
2022/08/31 04:34:50;;;;;;;7.80;4.62;;;;;;;17.24;66.07;99404.41;1823953;78;21563;-45
2022/08/31 04:37:17;;;;;;;7.20;5.00;;;;;;;17.31;66.14;99404.37;1821633;78;21032;-45
2022/08/31 04:39:44;;;;;;;9.40;5.35;;;;;;;17.33;66.21;99399.28;1818074;78;21232;-45
2022/08/31 04:42:11;;;;;;;9.40;5.08;;;;;;;17.36;66.41;99401.20;1818041;79;21025;-45
2022/08/31 04:44:39;;;;;;;7.05;5.03;;;;;;;17.44;66.42;99405.43;1786287;79;20968;-45
2022/08/31 04:47:07;;;;;;;8.88;4.58;;;;;;;17.49;66.35;99405.00;1817863;79;21065;-45
2022/08/31 04:49:33;;;;;;;6.75;4.92;;;;;;;17.58;66.27;99405.89;1817965;79;21459;-45
2022/08/31 04:52:02;;;;;;;9.20;5.00;;;;;;;17.65;66.14;99408.03;1818065;78;21874;-45
2022/08/31 04:54:29;;;;;;;7.80;5.03;;;;;;;17.73;66.03;99405.40;1817711;78;21562;-45
2022/08/31 04:56:57;;;;;;;8.70;4.80;;;;;;;17.80;65.94;99412.20;1817707;79;21547;-45
2022/08/31 04:59:26;;;;;;;5.72;4.70;;;;;;;17.87;65.69;99406.44;1817289;79;21068;-45
2022/08/31 05:01:58;;;;;;;6.58;4.72;;;;;;;17.90;65.54;99406.43;1814518;78;21500;-45
2022/08/31 05:04:39;;;;;;;7.08;4.67;;;;;;;17.91;65.50;99403.09;1817621;79;21089;-45
2022/08/31 05:07:06;;;;;;;6.28;3.90;;;;;;;17.92;65.52;99410.11;1817811;79;21491;-45
2022/08/31 05:09:35;;;;;;;6.08;4.20;;;;;;;17.95;65.58;99409.32;1817884;79;21467;-45
2022/08/31 05:12:03;;;;;;;6.25;4.15;;;;;;;18.07;65.65;99403.30;1817988;78;20963;-45
2022/08/31 05:14:31;;;;;;;6.58;4.50;;;;;;;18.20;65.15;99413.95;1818504;78;21621;-45
2022/08/31 05:17:00;;;;;;;8.33;4.85;;;;;;;18.27;65.05;99421.31;1816440;79;23114;-45
2022/08/31 05:19:28;;;;;;;8.20;4.70;;;;;;;18.30;65.06;99417.77;1817884;79;21547;-45
2022/08/31 05:21:55;;;;;;;7.17;4.33;;;;;;;18.31;64.75;99413.22;1818254;78;20998;-45
2022/08/31 05:24:22;;;;;;;6.05;4.53;;;;;;;18.34;64.86;99419.88;1817921;78;21008;-45
2022/08/31 05:26:53;;;;;;;6.35;4.17;;;;;;;18.40;64.87;99415.47;1818050;78;21024;-45
2022/08/31 05:29:22;;;;;;;5.60;4.10;;;;;;;18.45;64.76;99424.03;1817959;78;21222;-45
2022/08/31 05:31:51;;;;;;;8.80;4.35;;;;;;;18.54;64.62;99422.97;1818334;78;21020;-45
2022/08/31 05:34:20;;;;;;;5.78;3.87;;;;;;;18.69;64.31;99420.06;1817878;78;20969;-45
2022/08/31 05:36:52;;;;;;;7.30;4.47;;;;;;;18.78;64.12;99418.38;1817929;78;20984;-45
2022/08/31 05:39:20;;;;;;;6.70;4.10;;;;;;;18.86;64.19;99421.19;1786414;78;21060;-45
2022/08/31 05:41:48;;;;;;;7.83;4.60;;;;;;;18.93;63.65;99423.05;1818082;78;21135;-45
2022/08/31 05:44:16;;;;;;;9.75;5.00;;;;;;;18.98;63.53;99428.08;1818051;78;20957;-45
2022/08/31 05:46:44;;;;;;;5.87;4.30;;;;;;;19.00;63.31;99425.11;1817986;78;20991;-45
2022/08/31 05:49:11;;;;;;;7.72;3.72;;;;;;;19.03;63.49;99427.02;1818036;78;21083;-45
2022/08/31 05:51:39;;;;;;;5.55;3.60;;;;;;;19.15;63.54;99428.44;1817962;78;21068;-45
2022/08/31 05:54:06;;;;;;;5.67;3.83;;;;;;;19.30;63.45;99429.78;1818197;78;21123;-45
2022/08/31 05:56:34;;;;;;;7.20;4.17;;;;;;;19.44;63.19;99432.34;1818110;78;21002;-45
2022/08/31 05:59:01;;;;;;;7.22;4.30;;;;;;;19.57;62.75;99433.11;1818213;78;21000;-45
2022/08/31 06:01:31;;;;;;;8.20;4.40;;;;;;;19.66;62.34;99426.47;1817970;78;21617;-45
2022/08/31 06:04:04;;;;;;;5.28;3.72;;;;;;;19.75;62.41;99423.98;1818373;78;21532;-45
2022/08/31 06:06:32;;;;;;;6.05;4.35;;;;;;;19.83;62.23;99418.53;1818117;78;21220;-45
2022/08/31 06:09:00;;;;;;;7.97;4.40;;;;;;;19.91;61.72;99421.32;1818144;78;21029;-45
2022/08/31 06:11:29;;;;;;;5.72;4.30;;;;;;;19.93;61.91;99420.31;1817933;78;21033;-44
2022/08/31 06:13:58;;;;;;;7.50;4.17;;;;;;;19.97;61.67;99425.15;1818105;78;21508;-45
2022/08/31 06:16:25;;;;;;;4.53;3.50;;;;;;;20.00;61.33;99423.52;1818264;78;21155;-45
2022/08/31 06:18:54;;;;;;;5.40;3.90;;;;;;;20.09;61.55;99424.52;1818010;78;21079;-45
2022/08/31 06:21:27;;;;;;;4.45;3.58;;;;;;;20.21;61.59;99423.91;1817975;78;20953;-45
2022/08/31 06:23:56;;;;;;;8.38;3.45;;;;;;;20.29;61.23;99426.69;1817942;78;21602;-45
2022/08/31 06:26:25;;;;;;;5.37;4.00;;;;;;;20.35;60.66;99420.13;1817597;78;21016;-45
2022/08/31 06:28:54;;;;;;;5.37;3.50;;;;;;;20.39;60.16;99418.85;1818334;78;21036;-45
2022/08/31 06:31:30;;;;;;;6.97;3.92;;;;;;;20.42;60.33;99425.50;1817933;78;21109;-45
2022/08/31 06:33:58;;;;;;;4.85;3.30;;;;;;;20.45;60.18;99428.00;1818247;78;21522;-45
2022/08/31 06:36:43;;;;;;;5.85;3.27;;;;;;;20.46;60.05;99422.08;1818079;78;20917;-45
2022/08/31 06:39:29;;;;;;;5.17;3.40;;;;;;;20.52;60.74;99436.13;1807337;78;21044;-44
2022/08/31 06:41:58;;;;;;;4.22;3.25;;;;;;;20.63;60.54;99431.94;1795002;79;20978;-45
2022/08/31 06:44:28;;;;;;;4.95;3.10;;;;;;;20.82;60.23;99437.25;1735080;79;21559;-45
2022/08/31 06:47:09;;;;;;;4.85;2.75;;;;;;;20.95;59.34;99431.88;1806670;79;21072;-45
2022/08/31 06:49:39;;;;;;;5.85;3.10;;;;;;;21.06;59.70;99435.92;1807489;79;20961;-45
2022/08/31 06:52:06;;;;;;;4.80;3.08;;;;;;;21.21;59.04;99430.30;1807408;79;21595;-45
2022/08/31 06:54:35;;;;;;;5.05;2.90;;;;;;;21.36;58.55;99434.09;1807713;79;21546;-45
2022/08/31 06:57:21;;;;;;;4.47;2.60;;;;;;;21.48;58.18;99426.53;1807572;79;21276;-45
2022/08/31 06:59:59;;;;;;;4.92;2.33;;;;;;;21.59;57.59;99430.56;1768578;79;21028;-45
2022/08/31 07:02:28;;;;;;;4.78;3.00;;;;;;;21.64;56.49;99432.02;1806923;79;21499;-45
2022/08/31 07:04:55;;;;;;;5.15;2.72;;;;;;;21.63;56.56;99434.63;1807494;79;20988;-45
2022/08/31 07:07:23;;;;;;;5.30;2.50;;;;;;;21.59;56.99;99428.44;1807269;79;21068;-45
2022/08/31 07:09:52;;;;;;;5.40;2.60;;;;;;;21.60;56.94;99431.34;1807328;79;21129;-45
2022/08/31 07:12:19;;;;;;;3.80;2.72;;;;;;;21.59;57.07;99433.33;1807389;79;20997;-45
2022/08/31 07:14:47;;;;;;;6.62;3.02;;;;;;;21.61;57.39;99432.90;1778379;79;21394;-45
2022/08/31 07:17:14;;;;;;;3.25;2.58;;;;;;;21.71;57.02;99431.08;1807296;79;21037;-45
2022/08/31 07:19:42;;;;;;;4.55;2.67;;;;;;;21.78;56.51;99428.16;1807297;79;21032;-45
2022/08/31 07:22:09;;;;;;;3.52;2.85;;;;;;;21.83;56.70;99431.17;1807574;79;21791;-45
2022/08/31 07:24:37;;;;;;;4.05;2.72;;;;;;;21.84;56.41;99429.94;1807096;79;21734;-45
2022/08/31 07:27:08;;;;;;;5.10;2.98;;;;;;;21.83;56.46;99429.80;1807590;79;21082;-45
2022/08/31 07:29:40;;;;;;;5.72;3.02;;;;;;;21.82;56.78;99438.50;1805158;79;20977;-45
2022/08/31 07:32:11;;;;;;;3.70;2.90;;;;;;;21.83;56.58;99440.83;1807262;79;21072;-45
2022/08/31 07:34:39;;;;;;;3.50;2.50;;;;;;;21.86;56.79;99438.58;1807687;79;21102;-45
2022/08/31 07:42:58;;;;;;;5.55;2.45;;;;;;;22.06;56.11;99430.20;1807423;79;21013;-45
2022/08/31 07:45:26;;;;;;;3.85;2.37;;;;;;;22.18;55.80;99440.52;1777986;79;20998;-45
2022/08/31 07:47:55;;;;;;;4.40;2.95;;;;;;;22.22;55.44;99430.14;1807591;79;21202;-45
2022/08/31 07:50:25;;;;;;;8.70;2.77;;;;;;;22.28;55.68;99427.02;1807337;79;21540;-45
2022/08/31 07:52:57;;;;;;;3.80;2.77;;;;;;;22.33;54.98;99428.47;1803212;79;21554;-45
2022/08/31 07:55:46;;;;;;;5.25;2.62;;;;;;;22.38;55.22;99430.70;1806971;79;21060;-45
2022/08/31 07:58:21;;;;;;;4.70;2.83;;;;;;;22.43;55.15;99428.78;1804188;79;21054;-45
2022/08/31 08:00:48;;;;;;;4.17;2.42;;;;;;;22.46;55.08;99432.07;1807228;79;23136;-45
2022/08/31 08:03:16;;;;;;;3.10;2.15;;;;;;;22.47;55.03;99437.73;1807662;79;20993;-45
2022/08/31 08:06:02;;;;;;;3.17;2.10;;;;;;;22.46;55.24;99431.44;1807293;79;21563;-45
2022/08/31 08:08:34;;;;;;;3.00;2.00;;;;;;;22.33;54.95;99429.85;1807382;79;20993;-45
2022/08/31 08:11:07;;;;;;;3.83;2.25;;;;;;;22.18;54.89;99428.69;1796832;79;21087;-45
2022/08/31 08:13:40;;;;;;;5.10;2.10;;;;;;;22.13;55.35;99430.59;1806582;79;21315;-45
2022/08/31 08:16:10;;;;;;;3.95;2.40;;;;;;;22.10;55.56;99417.84;1805134;79;21001;-45
2022/08/31 08:18:43;;;;;;;2.65;2.33;;;;;;;22.18;56.02;99421.78;1805503;79;20922;-45
2022/08/31 08:21:12;;;;;;;3.90;2.25;;;;;;;22.36;55.69;99415.19;1807374;79;20953;-45
2022/08/31 08:23:40;;;;;;;3.67;2.15;;;;;;;22.49;55.30;99415.38;1807242;79;21656;-45
2022/08/31 08:26:24;;;;;;;3.37;2.20;;;;;;;22.60;55.11;99417.06;1708778;83;21214;-45
2022/08/31 08:29:05;;;;;;;3.40;2.25;;;;;;;22.68;54.63;99415.03;1784073;79;22027;-45
2022/08/31 08:31:33;;;;;;;5.17;2.22;;;;;;;22.79;53.91;99407.23;1778274;79;21546;-45
2022/08/31 08:34:00;;;;;;;4.97;2.08;;;;;;;22.85;54.07;99410.23;1801660;79;21063;-45
2022/08/31 08:36:27;;;;;;;4.00;2.12;;;;;;;22.89;53.87;99402.00;1776675;79;21004;-45
2022/08/31 08:38:56;;;;;;;3.00;2.27;;;;;;;22.96;54.23;99405.13;1698249;81;21149;-45
2022/08/31 08:41:27;;;;;;;4.42;1.92;;;;;;;23.05;53.39;99409.99;1754545;81;21570;-45
2022/08/31 08:43:57;;;;;;;2.58;1.47;;;;;;;23.09;52.83;99400.37;1754859;81;21020;-45
2022/08/31 08:46:38;;;;;;;2.72;1.50;;;;;;;23.18;52.04;99408.02;1754655;81;21546;-45
2022/08/31 08:49:10;;;;;;;3.97;1.80;;;;;;;23.27;50.10;99406.13;1755110;81;21526;-45
2022/08/31 08:51:38;;;;;;;2.52;1.55;;;;;;;23.35;50.64;99403.90;1754281;81;21535;-45
2022/08/31 08:54:11;;;;;;;3.20;1.40;;;;;;;23.51;50.90;99401.04;1754518;80;20976;-45
2022/08/31 08:56:46;;;;;;;2.33;1.70;;;;;;;23.68;50.70;99403.03;1753699;81;20933;-45
2022/08/31 08:59:11;;;;;;;2.85;1.52;;;;;;;23.78;50.66;99398.52;1754190;81;21036;-45
2022/08/31 09:01:45;;;;;;;2.45;1.37;;;;;;;23.91;51.15;99400.48;1754796;81;21059;-45
2022/08/31 09:04:17;;;;;;;2.30;1.30;;;;;;;24.10;49.79;99411.27;1754107;81;21257;-45
2022/08/31 09:07:22;;;;;;;3.00;1.72;;;;;;;24.17;49.56;99397.19;1751939;81;21043;-45
2022/08/31 09:10:06;;;;;;;2.42;1.50;;;;;;;24.29;49.68;99387.27;1754734;81;20980;-45
2022/08/31 09:12:43;;;;;;;4.17;1.62;;;;;;;24.41;49.09;99385.64;1754621;81;20997;-45
2022/08/31 09:15:45;;;;;;;2.77;2.00;;;;;;;24.51;48.23;99388.63;1754772;81;21506;-45
2022/08/31 09:18:20;;;;;;;4.87;1.98;;;;;;;24.62;49.34;99382.86;1754714;81;21311;-45
2022/08/31 09:21:21;;;;;;;2.17;1.70;;;;;;;24.75;47.63;99390.30;1750129;81;21526;-45
2022/08/31 09:24:07;;;;;;;2.47;1.75;;;;;;;24.66;47.93;99393.19;1735766;81;21028;-45
2022/08/31 09:27:17;;;;;;;2.40;1.80;;;;;;;24.56;48.05;99395.75;1754868;81;21091;-45
2022/08/31 09:30:00;;;;;;;2.77;1.82;;;;;;;24.53;48.45;99392.52;1718835;83;21044;-45
2022/08/31 09:32:30;;;;;;;1.90;1.45;;;;;;;24.56;47.92;99394.97;1754905;81;21239;-45
2022/08/31 09:35:04;;;;;;;8.75;2.17;;;;;;;24.53;47.65;99395.28;1755085;81;20975;-45
2022/08/31 09:37:39;;;;;;;2.87;1.65;;;;;;;24.43;47.78;99399.22;1754860;81;21067;-45
2022/08/31 09:40:19;;;;;;;2.02;1.42;;;;;;;24.33;47.07;99399.00;1771068;80;20989;-45
2022/08/31 09:42:57;;;;;;;2.58;1.52;;;;;;;24.25;47.57;99397.08;1775851;80;21032;-45
2022/08/31 09:45:28;;;;;;;1.95;1.75;;;;;;;24.14;47.48;99398.06;1775229;80;21083;-45
2022/08/31 09:48:00;;;;;;;4.85;1.60;;;;;;;24.04;48.63;99397.05;1747953;80;21088;-45
2022/08/31 09:50:32;;;;;;;3.10;1.90;;;;;;;23.97;48.77;99406.98;1775414;80;21093;-45
2022/08/31 09:56:21;;;;;;;2.83;1.92;;;;;;;23.89;49.07;99407.08;1775646;80;21013;-45
2022/08/31 09:59:01;;;;;;;3.60;1.90;;;;;;;23.95;49.11;99398.37;1775637;80;21899;-45
2022/08/31 10:01:43;;;;;;;2.15;1.72;;;;;;;24.11;48.41;99384.32;1775526;80;21029;-45
2022/08/31 10:04:21;;;;;;;2.20;1.85;;;;;;;24.37;47.45;99385.00;1775599;80;20965;-45
2022/08/31 10:07:10;;;;;;;4.92;2.33;;;;;;;24.56;47.83;99391.59;1773044;80;20992;-45
2022/08/31 10:09:53;;;;;;;4.95;2.00;;;;;;;24.69;47.70;99392.89;1775647;80;21033;-45
2022/08/31 10:12:38;;;;;;;2.10;1.90;;;;;;;24.68;46.72;99397.69;1775628;80;21321;-45
2022/08/31 10:15:39;;;;;;;3.17;1.70;;;;;;;24.48;46.88;99400.02;1764281;80;21017;-45
2022/08/31 10:18:13;;;;;;;;;;;;;;;24.29;46.71;99398.97;1778686;80;21887;-45
2022/08/31 10:20:47;;;;;;;2.17;1.40;;;;;;;24.10;46.42;99393.27;1775073;80;20476;-45
2022/08/31 10:23:20;;;;;;;3.83;1.40;;;;;;;23.94;47.17;99392.05;1775778;80;20981;-45
2022/08/31 10:25:53;;;;;;;1.62;1.32;;;;;;;23.88;47.15;99391.67;1775853;80;21234;-45
2022/08/31 10:28:35;;;;;;;3.67;1.70;;;;;;;23.79;47.56;99395.92;1775818;80;20972;-45
2022/08/31 10:31:19;;;;;;;2.17;1.75;;;;;;;23.72;47.96;99395.41;1775456;80;20968;-45
2022/08/31 10:36:57;;;;;;;3.85;1.80;;;;;;;23.77;49.15;99391.43;1775567;80;21006;-45
2022/08/31 10:39:44;;;;;;;2.10;1.90;;;;;;;23.73;48.94;99396.93;1773128;80;21135;-45
2022/08/31 10:42:20;;;;;;;2.90;1.95;;;;;;;23.61;49.29;99392.99;1751129;81;20941;-45
2022/08/31 10:44:56;;;;;;;4.17;1.80;;;;;;;23.68;49.57;99394.13;1770421;81;21222;-45
2022/08/31 10:47:29;;;;;;;2.55;1.90;;;;;;;23.90;49.23;99387.86;1770091;81;21584;-45
2022/08/31 10:50:01;;;;;;;2.60;1.72;;;;;;;24.16;47.82;99380.97;1770460;81;21526;-45
2022/08/31 10:52:35;;;;;;;1.87;1.62;;;;;;;24.40;47.79;99375.17;1770307;81;21229;-45
2022/08/31 10:55:36;;;;;;;2.52;1.77;;;;;;;24.75;47.66;99377.21;1738322;81;21011;-45
2022/08/31 10:58:35;;;;;;;;;;;;;;;25.24;47.45;99373.12;1773236;80;21024;-45
2022/08/31 11:01:54;;;;;;;2.42;1.90;;;;;;;25.73;44.85;99376.47;1770650;81;20446;-45
2022/08/31 11:05:00;;;;;;;3.15;1.70;;;;;;;25.64;43.90;99370.30;1770735;81;21000;-45
2022/08/31 11:07:57;;;;;;;4.33;1.70;;;;;;;25.39;44.56;99372.69;1770570;81;21318;-45
2022/08/31 11:10:45;;;;;;;2.75;2.02;;;;;;;25.22;45.36;99370.05;1770162;81;21023;-45
2022/08/31 11:13:20;;;;;;;1.98;1.42;;;;;;;25.07;45.54;99369.06;1770274;81;20957;-45
2022/08/31 11:16:17;;;;;;;1.65;1.30;;;;;;;24.99;45.28;99367.78;1770352;80;21056;-45
2022/08/31 11:19:24;;;;;;;1.60;1.30;;;;;;;25.03;45.54;99373.34;1762812;81;21037;-45
2022/08/31 11:22:42;;;;;;;2.25;1.30;;;;;;;25.16;44.94;99365.55;1770432;80;21118;-45
2022/08/31 11:25:46;;;;;;;2.12;1.35;;;;;;;25.30;45.05;99350.47;1770377;80;21013;-45
2022/08/31 11:28:22;;;;;;;2.17;1.10;;;;;;;25.47;44.67;99356.50;1769269;81;20969;-45
2022/08/31 11:30:45;;;;;;;2.17;1.20;;;;;;;25.45;43.33;99361.15;1769533;81;20957;-45
2022/08/31 11:33:20;;;;;;;1.10;1.00;;;;;;;25.35;42.60;99354.03;1770667;81;21064;-45
2022/08/31 11:36:00;;;;;;;1.77;1.30;;;;;;;25.31;42.69;99350.64;1769369;81;21243;-45
2022/08/31 11:39:04;;;;;;;2.22;1.40;;;;;;;25.33;42.91;99351.55;1770523;80;21530;-45
2022/08/31 11:41:45;;;;;;;2.55;1.20;;;;;;;25.56;43.22;99341.91;1770419;81;21492;-45
2022/08/31 11:44:30;;;;;;;;;;;;;;;26.04;42.06;99342.99;1773083;80;21464;-45
2022/08/31 11:47:20;;;;;;;2.25;1.40;;;;;;;26.60;42.26;99352.16;1765370;81;20217;-45
2022/08/31 11:49:49;;;;;;;2.12;1.22;;;;;;;27.08;40.69;99338.53;1770311;81;23173;-45
2022/08/31 11:52:35;;;;;;;2.98;1.47;;;;;;;27.53;39.40;99340.30;1770579;81;20961;-45
2022/08/31 11:55:22;;;;;;;4.28;1.50;;;;;;;27.69;38.86;99341.89;1770130;81;20922;-45
2022/08/31 11:58:10;;;;;;;1.80;1.40;;;;;;;27.57;38.17;99335.94;1770113;81;21001;-45
2022/08/31 12:01:01;;;;;;;2.27;1.22;;;;;;;27.25;38.26;99334.09;1770122;81;21025;-45
2022/08/31 12:04:02;;;;;;;1.77;1.10;;;;;;;26.91;37.83;99332.45;1770515;81;21082;-45
2022/08/31 12:06:36;;;;;;;2.58;1.40;;;;;;;26.60;38.10;99334.08;1770116;80;20965;-45
2022/08/31 12:09:12;;;;;;;3.80;1.10;;;;;;;26.40;38.37;99331.83;1770349;81;21012;-45
2022/08/31 12:11:47;;;;;;;2.27;1.20;;;;;;;26.36;38.16;99319.48;1770353;81;20925;-45
2022/08/31 12:14:51;;;;;;;2.42;1.30;;;;;;;26.41;39.78;99327.04;1770448;80;21343;-45
2022/08/31 12:17:30;;;;;;;1.10;1.07;;;;;;;26.52;38.33;99318.98;1770439;80;21221;-45
2022/08/31 12:20:07;;;;;;;2.72;1.30;;;;;;;26.44;38.79;99320.53;1754765;79;20961;-45
2022/08/31 12:26:20;;;;;;;2.05;1.42;;;;;;;26.18;39.55;99320.90;1770372;81;21073;-45